Time;durP1;ratioP1;P1;durP2;ratioP2;P2;SDS_P1;SDS_P2;PMS_P1;PMS_P2;Temp;Humidity;BMP_temperature;BMP_pressure;BME280_temperature;BME280_humidity;BME280_pressure;Samples;Min_cycle;Max_cycle;Signal;HPM_P1;HPM_P2
2022/02/19 00:00:42;;;;;;;7.73;1.90;;;;;;;4.81;64.95;100231.13;2011963;29;20025;-60
2022/02/19 00:01:42;;;;;;;10.70;1.70;;;;;;;4.75;64.84;100236.44;2011946;29;20116;-62
2022/02/19 00:02:43;;;;;;;9.15;2.70;;;;;;;4.90;64.62;100255.88;2011318;29;20082;-60
2022/02/19 00:03:43;;;;;;;5.00;1.13;;;;;;;4.85;64.84;100237.88;2011244;29;20607;-62
2022/02/19 00:04:43;;;;;;;6.33;1.37;;;;;;;4.98;64.35;100284.09;2019032;29;20021;-62
2022/02/19 00:05:44;;;;;;;7.70;1.30;;;;;;;4.94;64.60;100257.47;2012008;29;20033;-61
2022/02/19 00:06:44;;;;;;;3.03;0.90;;;;;;;5.00;64.21;100246.13;2011808;29;20108;-61
2022/02/19 00:07:44;;;;;;;4.77;1.00;;;;;;;4.96;64.71;100267.78;2011898;29;20026;-61
2022/02/19 00:08:45;;;;;;;5.97;1.35;;;;;;;4.99;64.31;100260.78;2011902;29;20064;-60
2022/02/19 00:09:45;;;;;;;6.20;1.27;;;;;;;4.95;64.67;100261.75;2011890;29;20025;-61
2022/02/19 00:10:45;;;;;;;6.27;1.50;;;;;;;4.94;64.94;100248.84;2011198;29;20019;-61
2022/02/19 00:11:45;;;;;;;6.40;1.27;;;;;;;5.02;64.86;100270.16;2011297;29;20104;-62
2022/02/19 00:12:46;;;;;;;6.43;0.93;;;;;;;4.90;65.11;100276.56;2011699;29;20032;-61
2022/02/19 00:13:46;;;;;;;7.13;1.30;;;;;;;4.86;65.54;100280.13;2011908;29;20030;-62
2022/02/19 00:14:47;;;;;;;3.67;1.07;;;;;;;4.96;64.88;100249.69;2011947;29;20025;-62
2022/02/19 00:15:47;;;;;;;7.22;2.33;;;;;;;4.92;65.13;100286.84;2011817;29;20056;-62
2022/02/19 00:16:48;;;;;;;8.90;1.63;;;;;;;4.87;65.61;100282.66;2011813;29;20042;-61
2022/02/19 00:17:48;;;;;;;5.28;1.05;;;;;;;4.95;65.56;100294.50;2011923;29;20507;-63
2022/02/19 00:18:49;;;;;;;5.27;1.30;;;;;;;5.04;64.94;100286.50;2011892;29;20029;-62
2022/02/19 00:19:50;;;;;;;7.55;1.15;;;;;;;4.98;65.29;100281.50;2011853;29;20060;-63
2022/02/19 00:20:50;;;;;;;5.55;1.50;;;;;;;4.93;65.70;100283.38;2011793;29;20033;-63
2022/02/19 00:21:50;;;;;;;5.67;1.53;;;;;;;4.95;65.78;100279.00;2011814;29;20060;-62
2022/02/19 00:22:51;;;;;;;6.57;1.47;;;;;;;4.88;66.07;100289.53;2011802;29;20108;-61
2022/02/19 00:23:51;;;;;;;9.80;1.60;;;;;;;5.06;65.42;100302.81;2011833;29;20395;-59
2022/02/19 00:24:52;;;;;;;10.18;1.77;;;;;;;4.92;65.76;100299.78;2011797;29;20037;-61
2022/02/19 00:25:52;;;;;;;13.98;1.92;;;;;;;4.99;65.83;100301.28;2018770;29;20036;-62
2022/02/19 00:26:54;;;;;;;7.97;1.55;;;;;;;4.97;65.59;100303.09;2018894;29;20024;-61
2022/02/19 00:27:54;;;;;;;6.35;1.00;;;;;;;4.78;66.24;100311.34;2011741;29;20082;-60
2022/02/19 00:28:55;;;;;;;9.15;1.27;;;;;;;4.61;66.93;100297.13;2011762;29;20481;-60
2022/02/19 00:29:55;;;;;;;7.03;1.27;;;;;;;4.57;67.22;100310.16;2011780;29;20547;-60
2022/02/19 00:30:57;;;;;;;5.67;0.93;;;;;;;4.53;67.35;100304.25;2018782;29;20085;-61
2022/02/19 00:31:57;;;;;;;6.50;1.17;;;;;;;4.52;66.93;100318.06;2010996;29;20161;-61
2022/02/19 00:32:57;;;;;;;5.73;0.83;;;;;;;4.57;66.77;100326.53;2011183;29;20025;-60
2022/02/19 00:33:57;;;;;;;7.07;1.70;;;;;;;4.71;66.55;100305.50;2011756;29;20025;-62
2022/02/19 00:34:58;;;;;;;6.23;1.13;;;;;;;4.62;66.67;100309.16;2011867;29;20032;-63
2022/02/19 00:35:58;;;;;;;11.17;1.67;;;;;;;4.55;67.13;100323.13;2011770;29;20108;-63
2022/02/19 00:36:59;;;;;;;7.40;1.67;;;;;;;4.51;67.04;100321.50;2018764;29;20108;-61
2022/02/19 00:37:59;;;;;;;4.72;1.70;;;;;;;4.62;66.99;100319.50;2018793;29;20089;-62
2022/02/19 00:39:00;;;;;;;5.77;1.43;;;;;;;4.61;66.88;100302.31;2011731;29;20129;-61
2022/02/19 00:40:00;;;;;;;9.63;1.70;;;;;;;4.57;67.06;100326.53;2011698;29;20038;-61
2022/02/19 00:41:01;;;;;;;7.97;1.30;;;;;;;4.53;67.08;100317.16;2011711;29;20483;-62
2022/02/19 00:42:02;;;;;;;2.53;1.02;;;;;;;4.51;67.46;100329.25;2011674;29;20078;-60
2022/02/19 00:43:02;;;;;;;10.85;1.20;;;;;;;4.52;67.40;100349.06;2011709;29;20079;-62
2022/02/19 00:44:03;;;;;;;7.27;1.80;;;;;;;4.64;67.30;100340.13;2011735;29;20033;-61
2022/02/19 00:45:04;;;;;;;5.60;1.40;;;;;;;4.57;67.49;100331.69;2011841;29;20109;-62
2022/02/19 00:46:04;;;;;;;5.63;1.55;;;;;;;4.57;67.46;100331.69;2011710;29;20042;-61
2022/02/19 00:47:04;;;;;;;8.80;1.30;;;;;;;4.58;67.38;100332.56;2011692;29;20077;-62
2022/02/19 00:48:05;;;;;;;4.40;1.10;;;;;;;4.49;68.04;100328.47;2011509;29;20054;-62
2022/02/19 00:49:06;;;;;;;5.43;1.10;;;;;;;4.53;67.57;100332.66;2011612;29;20499;-62
2022/02/19 00:50:08;;;;;;;8.20;1.38;;;;;;;4.55;67.66;100323.13;2011648;29;20029;-60
2022/02/19 00:51:08;;;;;;;7.75;1.63;;;;;;;4.48;67.78;100334.53;2011712;29;20037;-61
2022/02/19 00:52:09;;;;;;;5.00;1.37;;;;;;;4.51;67.73;100343.03;2011582;29;20057;-62
2022/02/19 00:53:09;;;;;;;5.97;0.97;;;;;;;4.52;67.71;100333.56;2011707;29;20321;-61
2022/02/19 00:54:09;;;;;;;5.50;1.17;;;;;;;4.48;67.67;100347.44;2011637;29;20088;-60
2022/02/19 00:55:10;;;;;;;4.17;1.20;;;;;;;4.54;67.97;100357.63;2011668;29;20444;-62
2022/02/19 00:56:10;;;;;;;5.63;1.83;;;;;;;4.51;68.05;100360.28;2018626;29;20037;-61
2022/02/19 00:57:10;;;;;;;4.37;1.07;;;;;;;4.51;68.23;100373.19;2018805;29;20036;-62
2022/02/19 00:58:10;;;;;;;4.47;1.00;;;;;;;4.59;67.75;100363.50;2010957;29;20033;-62
2022/02/19 00:59:11;;;;;;;6.10;1.90;;;;;;;4.71;67.38;100369.25;2010984;29;20029;-61
2022/02/19 01:00:12;;;;;;;6.87;1.30;;;;;;;4.84;67.18;100362.03;2018629;29;20096;-62
2022/02/19 01:01:12;;;;;;;6.10;1.45;;;;;;;4.83;66.71;100366.34;2011352;29;20077;-61
2022/02/19 01:02:12;;;;;;;5.70;1.20;;;;;;;4.85;66.86;100385.28;2011529;29;20048;-60
2022/02/19 01:03:13;;;;;;;4.30;1.17;;;;;;;4.86;66.44;100363.69;2011672;29;20037;-61
2022/02/19 01:04:13;;;;;;;4.85;1.83;;;;;;;4.73;67.50;100383.00;2011572;29;20498;-60
2022/02/19 01:05:14;;;;;;;3.20;1.03;;;;;;;4.94;66.40;100375.56;2011634;29;20034;-62
2022/02/19 01:06:14;;;;;;;6.57;1.57;;;;;;;4.85;65.59;100369.75;2011567;29;20108;-61
2022/02/19 01:07:14;;;;;;;6.47;1.27;;;;;;;4.92;65.59;100392.88;2011588;29;20026;-61
2022/02/19 01:08:14;;;;;;;4.03;1.37;;;;;;;5.00;65.26;100385.78;2011631;29;20448;-60
2022/02/19 01:09:15;;;;;;;5.83;1.77;;;;;;;4.90;65.52;100395.50;2011541;29;20029;-61
2022/02/19 01:10:15;;;;;;;7.50;1.33;;;;;;;4.83;65.85;100394.78;2011588;29;20045;-61
2022/02/19 01:11:16;;;;;;;5.73;1.30;;;;;;;4.81;66.41;100395.72;2011566;29;20498;-60
2022/02/19 01:12:16;;;;;;;7.97;1.88;;;;;;;4.76;66.63;100382.94;2011461;29;20022;-61
2022/02/19 01:13:17;;;;;;;3.53;0.80;;;;;;;4.89;66.33;100389.47;2011561;29;20033;-61
2022/02/19 01:14:17;;;;;;;3.50;0.85;;;;;;;4.88;66.08;100398.13;2018471;29;20494;-62
2022/02/19 01:15:17;;;;;;;3.97;0.90;;;;;;;4.82;66.36;100392.28;2018655;29;20041;-62
2022/02/19 01:16:18;;;;;;;4.90;1.10;;;;;;;4.81;66.79;100400.88;2011466;29;20038;-62
2022/02/19 01:17:18;;;;;;;5.10;1.23;;;;;;;4.81;66.73;100401.75;2011446;29;20108;-62
2022/02/19 01:18:18;;;;;;;10.37;2.67;;;;;;;4.84;66.78;100403.41;2011487;29;20029;-62
2022/02/19 01:19:18;;;;;;;6.90;1.67;;;;;;;4.80;66.85;100394.03;2011525;29;20106;-62
2022/02/19 01:20:19;;;;;;;7.27;1.63;;;;;;;4.73;66.79;100408.84;2011498;29;20543;-60
2022/02/19 01:21:19;;;;;;;4.80;1.33;;;;;;;4.72;67.89;100412.34;2011501;29;20501;-62
2022/02/19 01:22:20;;;;;;;8.97;1.50;;;;;;;4.72;67.21;100383.91;2011365;29;20034;-61
2022/02/19 01:23:20;;;;;;;5.57;1.53;;;;;;;4.79;67.14;100405.28;2018445;29;20384;-60
2022/02/19 01:24:22;;;;;;;3.53;0.93;;;;;;;4.90;66.89;100393.75;2018560;29;20021;-60
2022/02/19 01:25:22;;;;;;;4.75;1.63;;;;;;;4.85;67.17;100407.69;2011433;29;20097;-61
2022/02/19 01:26:22;;;;;;;3.57;0.67;;;;;;;4.77;67.63;100400.13;2011316;29;20033;-61
2022/02/19 01:27:22;;;;;;;7.17;1.83;;;;;;;4.70;67.80;100404.63;2011350;29;20046;-62
2022/02/19 01:28:23;;;;;;;4.20;1.00;;;;;;;4.67;67.47;100401.25;2011330;29;20093;-60
2022/02/19 01:29:23;;;;;;;9.00;1.50;;;;;;;4.73;67.78;100398.53;2011338;29;20413;-59
2022/02/19 01:30:23;;;;;;;6.67;1.43;;;;;;;4.89;67.15;100425.69;2011294;29;20286;-61
2022/02/19 01:31:24;;;;;;;7.83;1.20;;;;;;;4.80;67.27;100417.31;2011387;29;20045;-62
2022/02/19 01:32:25;;;;;;;7.82;2.08;;;;;;;4.77;67.80;100431.16;2011264;29;20029;-60
2022/02/19 01:33:25;;;;;;;3.60;0.88;;;;;;;4.76;67.29;100429.47;2011329;29;20076;-61
2022/02/19 01:34:26;;;;;;;4.70;1.40;;;;;;;4.76;67.95;100414.78;2011324;29;20435;-60
2022/02/19 01:35:26;;;;;;;8.33;1.43;;;;;;;4.75;67.73;100435.50;2011340;29;20030;-61
2022/02/19 01:36:26;;;;;;;9.40;2.10;;;;;;;4.68;68.20;100411.53;2011287;29;20040;-64
2022/02/19 01:37:26;;;;;;;6.63;1.57;;;;;;;4.82;67.64;100434.47;2011293;29;20029;-61
2022/02/19 01:38:28;;;;;;;9.77;1.63;;;;;;;4.85;67.34;100437.00;2018367;29;20550;-61
2022/02/19 01:39:29;;;;;;;;;;;;;;;4.78;68.38;100453.53;2018744;29;20052;-62
2022/02/19 01:40:30;;;;;;;5.63;1.77;;;;;;;4.75;68.02;100448.44;2011329;29;20292;-62
2022/02/19 01:41:30;;;;;;;4.43;1.55;;;;;;;4.73;67.87;100452.81;2011294;29;20490;-62
2022/02/19 01:42:31;;;;;;;6.37;1.07;;;;;;;4.80;67.63;100410.41;2011302;29;20104;-60
2022/02/19 01:43:31;;;;;;;12.33;4.13;;;;;;;4.90;67.17;100448.06;2011241;29;20025;-61
2022/02/19 01:44:42;;;;;;;5.13;0.93;;;;;;;4.78;67.55;100470.81;2011286;29;20112;-62
2022/02/19 01:45:46;;;;;;;7.28;1.48;;;;;;;4.72;67.93;100453.69;2011283;29;20028;-62
2022/02/19 01:46:46;;;;;;;2.85;1.10;;;;;;;4.78;68.14;100463.88;2010579;29;20054;-60
2022/02/19 01:47:46;;;;;;;4.73;1.00;;;;;;;4.77;68.67;100454.44;2010526;29;20078;-61
2022/02/19 01:48:46;;;;;;;6.57;1.47;;;;;;;4.92;67.73;100466.13;2011255;29;20037;-60
2022/02/19 01:49:47;;;;;;;8.97;2.27;;;;;;;4.95;66.89;100470.34;2011132;29;20064;-62
2022/02/19 01:50:48;;;;;;;5.78;1.55;;;;;;;4.89;66.94;100466.19;2011245;29;20357;-61
2022/02/19 01:51:48;;;;;;;3.88;1.33;;;;;;;4.81;67.93;100468.13;2011224;29;20108;-60
2022/02/19 01:52:48;;;;;;;8.33;1.40;;;;;;;4.82;67.92;100481.00;2011141;29;20468;-61
2022/02/19 01:53:49;;;;;;;7.27;1.50;;;;;;;4.78;67.64;100481.97;2011209;29;20033;-59
2022/02/19 01:54:49;;;;;;;7.13;1.17;;;;;;;4.90;67.46;100486.84;2011242;29;20278;-62
2022/02/19 01:55:49;;;;;;;6.17;1.60;;;;;;;4.81;67.50;100481.03;2018249;29;20025;-63
2022/02/19 01:56:51;;;;;;;7.07;1.33;;;;;;;4.95;67.21;100481.56;2018281;29;20029;-61
2022/02/19 01:57:52;;;;;;;6.68;1.73;;;;;;;4.86;67.72;100482.63;2018236;29;20451;-61
2022/02/19 01:58:53;;;;;;;6.43;1.53;;;;;;;4.83;67.21;100495.63;2018311;29;20180;-61
2022/02/19 01:59:54;;;;;;;7.25;1.50;;;;;;;4.74;67.54;100486.38;2011116;29;20177;-61
2022/02/19 02:00:54;;;;;;;3.92;0.95;;;;;;;5.01;67.23;100499.53;2011150;29;20052;-61
2022/02/19 02:01:54;;;;;;;5.27;1.73;;;;;;;5.07;66.53;100454.56;2011100;29;20032;-61
2022/02/19 02:02:56;;;;;;;3.57;1.00;;;;;;;5.27;65.96;100474.72;2011031;29;20057;-61
2022/02/19 02:03:56;;;;;;;5.85;1.30;;;;;;;4.93;66.73;100506.59;2010393;29;20507;-61
2022/02/19 02:04:57;;;;;;;4.27;1.00;;;;;;;4.86;66.65;100507.66;2010541;29;20037;-60
2022/02/19 02:05:57;;;;;;;6.53;1.17;;;;;;;4.76;66.87;100505.28;2011093;29;20452;-61
2022/02/19 02:06:58;;;;;;;7.57;0.87;;;;;;;4.72;67.04;100493.31;2018103;29;20285;-60
2022/02/19 02:07:58;;;;;;;7.00;1.40;;;;;;;4.80;66.60;100497.44;2010407;29;20034;-60
2022/02/19 02:08:59;;;;;;;7.47;1.67;;;;;;;4.94;66.01;100507.47;2010446;29;20033;-64
2022/02/19 02:09:59;;;;;;;5.05;1.20;;;;;;;4.99;65.45;100513.38;2010469;29;20109;-61
2022/02/19 02:11:02;;;;;;;3.53;1.00;;;;;;;4.92;65.99;100512.66;2011056;29;20033;-61
2022/02/19 02:12:03;;;;;;;3.70;1.20;;;;;;;4.79;67.00;100522.44;2010739;29;20025;-61
2022/02/19 02:13:06;;;;;;;6.47;1.92;;;;;;;5.03;65.82;100535.69;2009993;29;20545;-61
2022/02/19 02:14:08;;;;;;;7.03;1.98;;;;;;;5.28;64.60;100527.31;2010353;29;20408;-60
2022/02/19 02:15:29;;;;;;;;;;;;;;;5.09;65.10;100532.94;2010760;29;20423;-60
2022/02/19 02:16:37;;;;;;;2.80;1.23;;;;;;;5.03;65.74;100533.94;2010642;29;19912;-60
2022/02/19 02:17:39;;;;;;;5.35;1.25;;;;;;;5.03;64.79;100536.53;2010882;29;20508;-61
2022/02/19 02:18:42;;;;;;;7.22;1.35;;;;;;;4.85;65.68;100530.06;2011040;29;20026;-61
2022/02/19 02:19:42;;;;;;;3.90;1.00;;;;;;;4.95;65.45;100533.28;2010998;29;20033;-62
2022/02/19 02:20:43;;;;;;;4.57;1.50;;;;;;;5.10;64.52;100537.22;2011021;29;20368;-60
2022/02/19 02:21:43;;;;;;;5.27;1.33;;;;;;;5.01;65.47;100533.16;2011044;29;20025;-60
2022/02/19 02:22:43;;;;;;;2.97;1.87;;;;;;;4.90;66.04;100541.16;2011037;29;20025;-61
2022/02/19 02:23:44;;;;;;;3.17;0.93;;;;;;;4.87;65.41;100546.41;2017959;29;20222;-62
2022/02/19 02:24:44;;;;;;;7.27;1.00;;;;;;;4.83;66.15;100542.16;2018024;29;20104;-61
2022/02/19 02:25:45;;;;;;;5.37;1.93;;;;;;;4.85;65.85;100527.50;2010890;29;20054;-60
2022/02/19 02:26:46;;;;;;;;;;;;;;;5.01;64.79;100547.81;2011192;29;20109;-61
2022/02/19 02:27:46;;;;;;;4.30;1.70;;;;;;;5.01;65.60;100543.50;2010831;29;20359;-60
2022/02/19 02:28:46;;;;;;;5.17;1.10;;;;;;;5.10;65.24;100546.75;2010853;29;20117;-62
2022/02/19 02:29:48;;;;;;;5.93;1.37;;;;;;;4.97;65.92;100552.22;2010910;29;20052;-62
2022/02/19 02:30:48;;;;;;;4.53;0.98;;;;;;;5.03;64.95;100546.88;2010919;29;20037;-61
2022/02/19 02:31:48;;;;;;;3.73;1.00;;;;;;;5.14;65.31;100554.38;2010906;29;20364;-62
2022/02/19 02:32:49;;;;;;;3.47;0.83;;;;;;;5.07;65.30;100560.63;2010848;29;20027;-61
2022/02/19 02:33:51;;;;;;;5.05;0.90;;;;;;;4.93;66.36;100560.06;2010843;29;20085;-62
2022/02/19 02:34:56;;;;;;;6.07;1.02;;;;;;;4.86;66.42;100555.03;2017898;29;20041;-61
2022/02/19 02:35:56;;;;;;;9.45;1.33;;;;;;;4.77;67.32;100550.09;2017399;29;20056;-62
2022/02/19 02:36:57;;;;;;;3.40;1.13;;;;;;;4.78;67.29;100551.78;2017877;29;20040;-61
2022/02/19 02:37:57;;;;;;;5.03;1.20;;;;;;;4.87;66.71;100550.72;2017920;29;20123;-61
2022/02/19 02:38:58;;;;;;;4.47;1.30;;;;;;;4.99;67.27;100565.09;2010812;29;20029;-61
2022/02/19 02:39:58;;;;;;;8.55;1.35;;;;;;;5.01;66.13;100563.34;2010818;29;20058;-61
2022/02/19 02:40:59;;;;;;;5.37;2.07;;;;;;;4.97;66.59;100566.88;2010810;29;20033;-61
2022/02/19 02:42:00;;;;;;;4.65;1.10;;;;;;;5.22;66.05;100556.78;2017810;29;20276;-61
2022/02/19 02:43:01;;;;;;;6.20;1.77;;;;;;;5.09;66.22;100573.47;2017951;29;20037;-62
2022/02/19 02:44:01;;;;;;;4.47;1.10;;;;;;;4.93;67.24;100573.00;2010819;29;20089;-60
2022/02/19 02:45:02;;;;;;;6.10;0.90;;;;;;;4.81;67.64;100571.53;2010852;29;20085;-62
2022/02/19 02:46:03;;;;;;;;;;;;;;;4.85;67.65;100557.66;2011195;29;20040;-60
2022/02/19 02:47:03;;;;;;;5.80;0.90;;;;;;;4.82;67.50;100574.09;2010867;29;20028;-62
2022/02/19 02:48:04;;;;;;;7.77;2.17;;;;;;;4.73;68.56;100584.66;2010690;29;20106;-61
2022/02/19 02:49:04;;;;;;;5.77;1.30;;;;;;;4.78;68.36;100567.28;2010791;29;20314;-62
2022/02/19 02:50:05;;;;;;;8.03;1.97;;;;;;;4.71;68.08;100578.66;2010789;29;20037;-61
2022/02/19 02:51:07;;;;;;;5.63;1.90;;;;;;;4.76;68.16;100588.00;2010760;29;20025;-61
2022/02/19 02:52:09;;;;;;;4.57;1.10;;;;;;;4.77;67.85;100583.69;2017747;29;20036;-62
2022/02/19 02:53:10;;;;;;;4.45;0.93;;;;;;;4.92;67.65;100587.66;2017694;29;20041;-62
2022/02/19 02:54:10;;;;;;;4.70;1.77;;;;;;;4.83;68.36;100590.47;2010693;29;20452;-60
2022/02/19 02:55:11;;;;;;;2.90;0.77;;;;;;;4.82;67.87;100589.59;2010855;29;20029;-61
2022/02/19 02:56:12;;;;;;;5.93;1.15;;;;;;;4.77;68.20;100586.28;2010786;29;20029;-61
2022/02/19 02:57:12;;;;;;;6.77;0.97;;;;;;;4.84;67.74;100598.19;2017767;29;20033;-61
2022/02/19 02:58:12;;;;;;;3.50;0.90;;;;;;;4.80;68.41;100593.97;2010011;29;20030;-60
2022/02/19 02:59:13;;;;;;;5.83;0.83;;;;;;;4.69;68.15;100552.84;2009948;29;20448;-62
2022/02/19 03:00:15;;;;;;;7.03;1.97;;;;;;;4.73;67.30;100601.00;2010082;29;20034;-61
2022/02/19 03:01:16;;;;;;;6.13;1.50;;;;;;;4.94;66.94;100618.66;2010637;29;20149;-61
2022/02/19 03:02:16;;;;;;;5.63;1.40;;;;;;;4.79;67.42;100605.19;2010702;29;20572;-62
2022/02/19 03:03:16;;;;;;;6.23;1.60;;;;;;;4.71;67.82;100602.78;2010547;29;20108;-62
2022/02/19 03:04:17;;;;;;;5.97;1.07;;;;;;;4.71;67.90;100602.78;2010665;29;20032;-61
2022/02/19 03:05:17;;;;;;;4.47;1.20;;;;;;;4.68;67.59;100613.19;2010643;29;20036;-61
2022/02/19 03:06:17;;;;;;;5.40;1.40;;;;;;;4.88;67.55;100589.47;2009975;29;20286;-61
2022/02/19 03:07:18;;;;;;;5.90;1.37;;;;;;;4.95;67.07;100620.34;2010079;29;20162;-61
2022/02/19 03:08:18;;;;;;;5.57;1.60;;;;;;;4.73;67.93;100616.50;2010576;29;20045;-61
2022/02/19 03:09:18;;;;;;;4.50;0.80;;;;;;;4.60;68.57;100621.13;2010691;29;20048;-61
2022/02/19 03:10:18;;;;;;;9.10;1.70;;;;;;;4.50;68.89;100624.75;2017660;29;20060;-61
2022/02/19 03:11:19;;;;;;;10.97;1.70;;;;;;;4.46;68.92;100628.28;2017718;29;20040;-60
2022/02/19 03:12:19;;;;;;;5.80;1.10;;;;;;;4.41;68.96;100635.28;2010592;29;20495;-61
2022/02/19 03:13:19;;;;;;;13.20;3.23;;;;;;;4.47;69.56;100630.00;2010682;29;20507;-61
2022/02/19 03:14:19;;;;;;;5.87;1.10;;;;;;;4.58;68.81;100633.22;2010673;29;20515;-61
2022/02/19 03:15:21;;;;;;;6.77;1.80;;;;;;;4.54;69.03;100623.81;2010659;29;20291;-61
2022/02/19 03:16:21;;;;;;;5.13;1.52;;;;;;;4.61;68.40;100645.22;2010576;29;20029;-61
2022/02/19 03:17:22;;;;;;;6.87;2.60;;;;;;;4.63;68.58;100651.22;2010603;29;20489;-62
2022/02/19 03:18:22;;;;;;;7.27;1.80;;;;;;;4.57;68.50;100644.44;2010599;29;20120;-61
2022/02/19 03:19:22;;;;;;;7.73;1.63;;;;;;;4.59;68.90;100634.06;2010618;29;20519;-60
2022/02/19 03:20:24;;;;;;;4.23;1.40;;;;;;;4.52;69.06;100656.63;2010547;29;20037;-61
2022/02/19 03:21:24;;;;;;;4.38;1.00;;;;;;;4.47;69.04;100645.50;2010578;29;20048;-61
2022/02/19 03:22:25;;;;;;;4.10;1.25;;;;;;;4.45;69.41;100648.09;2010584;29;20448;-61
2022/02/19 03:23:25;;;;;;;4.77;0.97;;;;;;;4.58;68.74;100643.53;2010611;29;20387;-61
2022/02/19 03:24:25;;;;;;;7.20;0.90;;;;;;;4.68;68.57;100653.72;2017608;29;20076;-61
2022/02/19 03:25:26;;;;;;;2.67;0.73;;;;;;;4.57;68.86;100667.69;2017653;29;20060;-61
2022/02/19 03:26:26;;;;;;;7.18;1.30;;;;;;;4.67;68.53;100668.34;2010494;29;20459;-61
2022/02/19 03:27:27;;;;;;;8.10;1.47;;;;;;;4.64;68.32;100663.25;2010520;29;20065;-59
2022/02/19 03:28:28;;;;;;;;;;;;;;;4.57;69.15;100662.53;2010987;29;20026;-62
2022/02/19 03:29:29;;;;;;;3.88;1.15;;;;;;;4.64;68.38;100669.28;2010590;29;19935;-60
2022/02/19 03:30:29;;;;;;;7.28;1.42;;;;;;;4.55;68.84;100664.28;2010600;29;20028;-62
2022/02/19 03:31:30;;;;;;;4.53;1.10;;;;;;;4.54;69.29;100677.22;2010592;29;20117;-62
2022/02/19 03:32:30;;;;;;;6.53;1.08;;;;;;;4.50;69.07;100669.56;2010544;29;20017;-61
2022/02/19 03:33:30;;;;;;;8.17;1.27;;;;;;;4.62;68.35;100676.19;2010615;29;20117;-60
2022/02/19 03:34:31;;;;;;;4.17;1.23;;;;;;;4.63;68.17;100677.06;2010622;29;20403;-61
2022/02/19 03:35:32;;;;;;;6.35;0.80;;;;;;;4.59;68.48;100676.25;2010547;29;20110;-61
2022/02/19 03:36:33;;;;;;;6.67;1.20;;;;;;;4.66;68.33;100677.00;2010544;29;20037;-61
2022/02/19 03:37:34;;;;;;;8.88;1.55;;;;;;;4.86;67.39;100678.31;2009889;29;20041;-60
2022/02/19 03:38:35;;;;;;;3.08;0.80;;;;;;;4.68;67.98;100687.31;2009937;29;20114;-61
2022/02/19 03:39:35;;;;;;;14.33;1.70;;;;;;;4.96;67.29;100694.50;2010456;29;20081;-61
2022/02/19 03:40:35;;;;;;;8.87;1.87;;;;;;;4.70;68.15;100694.16;2010493;29;20033;-61
2022/02/19 03:41:35;;;;;;;8.33;1.60;;;;;;;4.80;67.63;100689.66;2010492;29;20057;-61
2022/02/19 03:42:38;;;;;;;7.17;0.97;;;;;;;4.70;68.03;100699.31;2010590;29;20070;-60
2022/02/19 03:43:38;;;;;;;6.63;1.10;;;;;;;4.56;68.42;100702.19;2017428;29;20056;-61
2022/02/19 03:44:40;;;;;;;7.87;1.87;;;;;;;4.51;68.86;100699.69;2017581;29;20021;-61
2022/02/19 03:45:43;;;;;;;;;;;;;;;4.51;68.98;100698.81;2010940;29;20021;-60
2022/02/19 03:46:43;;;;;;;6.50;1.27;;;;;;;4.59;68.82;100701.28;2013037;29;20003;-60
2022/02/19 03:47:44;;;;;;;6.20;2.07;;;;;;;4.61;68.06;100709.84;2010344;29;20376;-61
2022/02/19 03:48:44;;;;;;;7.53;1.30;;;;;;;4.73;68.29;100706.16;2010477;29;20068;-60
2022/02/19 03:49:44;;;;;;;9.10;1.77;;;;;;;4.60;68.48;100709.00;2010488;29;20034;-61
2022/02/19 03:50:45;;;;;;;3.80;1.30;;;;;;;4.68;68.27;100695.91;2010468;29;20448;-61
2022/02/19 03:51:45;;;;;;;6.10;1.43;;;;;;;4.67;67.70;100706.28;2010394;29;20110;-61
2022/02/19 03:52:46;;;;;;;10.97;1.73;;;;;;;4.54;68.36;100716.84;2010383;29;20041;-62
2022/02/19 03:53:46;;;;;;;6.78;1.58;;;;;;;4.80;67.51;100718.09;2010413;29;20026;-62
2022/02/19 03:54:46;;;;;;;7.70;1.43;;;;;;;4.72;67.80;100725.16;2010479;29;20022;-62
2022/02/19 03:55:47;;;;;;;13.83;1.77;;;;;;;4.60;67.98;100724.50;2010379;29;20170;-61
2022/02/19 03:56:47;;;;;;;3.83;0.97;;;;;;;4.49;68.58;100726.44;2010445;29;20048;-60
2022/02/19 03:57:47;;;;;;;4.57;1.40;;;;;;;4.43;68.51;100734.31;2010415;29;20034;-60
2022/02/19 03:58:48;;;;;;;8.47;1.20;;;;;;;4.45;68.61;100735.13;2010467;29;20468;-62
2022/02/19 03:59:48;;;;;;;4.38;1.10;;;;;;;4.37;69.07;100738.72;2010452;29;20128;-61
2022/02/19 04:00:48;;;;;;;4.57;1.47;;;;;;;4.38;68.86;100740.41;2010503;29;20032;-62
2022/02/19 04:01:49;;;;;;;6.10;1.57;;;;;;;4.37;68.70;100743.00;2010460;29;20037;-62
2022/02/19 04:02:49;;;;;;;3.70;1.00;;;;;;;4.33;69.10;100747.41;2010546;29;20087;-61
2022/02/19 04:03:49;;;;;;;7.60;1.53;;;;;;;4.44;68.26;100749.78;2010518;29;20033;-62
2022/02/19 04:04:49;;;;;;;8.80;2.03;;;;;;;4.60;68.23;100757.25;2010588;29;20543;-61
2022/02/19 04:05:50;;;;;;;6.53;1.23;;;;;;;4.54;67.69;100749.59;2010453;29;20033;-61
2022/02/19 04:06:50;;;;;;;11.70;1.60;;;;;;;4.53;67.38;100753.94;2010483;29;20123;-62
2022/02/19 04:07:50;;;;;;;3.87;0.83;;;;;;;4.51;67.78;100751.38;2010411;29;20058;-62
2022/02/19 04:08:51;;;;;;;9.80;1.47;;;;;;;4.45;67.92;100768.72;2010516;29;20029;-61
2022/02/19 04:09:51;;;;;;;9.55;2.13;;;;;;;4.45;66.53;100760.97;2010438;29;20029;-60
2022/02/19 04:10:51;;;;;;;9.40;1.47;;;;;;;4.46;66.51;100762.69;2010520;29;20497;-61
2022/02/19 04:11:52;;;;;;;6.47;1.87;;;;;;;4.43;66.72;100765.31;2009894;29;20453;-61
2022/02/19 04:12:52;;;;;;;5.80;1.30;;;;;;;4.49;65.93;100727.28;2009883;29;20028;-60
2022/02/19 04:13:52;;;;;;;7.30;1.20;;;;;;;4.53;65.63;100774.63;2010435;29;20466;-61
2022/02/19 04:14:52;;;;;;;16.97;2.20;;;;;;;4.52;66.13;100752.25;2010487;29;20029;-61
2022/02/19 04:15:53;;;;;;;6.03;1.50;;;;;;;4.81;64.63;100762.88;2010376;29;20116;-60
2022/02/19 04:16:53;;;;;;;9.68;2.08;;;;;;;4.68;64.68;100782.97;2010407;29;20041;-60
2022/02/19 04:17:54;;;;;;;8.32;1.63;;;;;;;4.61;64.53;100757.22;2010370;29;20030;-60
2022/02/19 04:18:54;;;;;;;7.80;1.47;;;;;;;4.61;65.37;100783.06;2017456;29;20529;-61
2022/02/19 04:19:54;;;;;;;5.95;1.27;;;;;;;4.56;64.71;100779.72;2017457;29;20483;-59
2022/02/19 04:20:55;;;;;;;3.40;0.83;;;;;;;4.78;64.08;100779.31;2010411;29;20116;-61
2022/02/19 04:21:55;;;;;;;6.13;1.30;;;;;;;4.74;64.04;100778.53;2010409;29;20040;-61
2022/02/19 04:22:56;;;;;;;4.77;1.30;;;;;;;4.68;63.75;100780.38;2010427;29;20029;-62
2022/02/19 04:23:56;;;;;;;5.25;0.98;;;;;;;4.61;64.93;100766.69;2010372;29;20029;-61
2022/02/19 04:24:57;;;;;;;3.57;0.80;;;;;;;4.73;64.53;100786.31;2010408;29;20022;-62
2022/02/19 04:25:57;;;;;;;6.63;1.37;;;;;;;4.61;64.91;100788.25;2017322;29;20039;-61
2022/02/19 04:26:57;;;;;;;5.77;1.03;;;;;;;4.60;65.18;100801.19;2017402;29;20051;-62
2022/02/19 04:28:05;;;;;;;5.07;1.10;;;;;;;4.69;64.61;100795.84;2010187;29;20387;-61
2022/02/19 04:29:05;;;;;;;10.90;2.15;;;;;;;4.59;64.21;100797.75;2009508;29;20041;-61
2022/02/19 04:30:07;;;;;;;7.00;1.53;;;;;;;4.57;64.59;100802.09;2009636;29;20056;-61
2022/02/19 04:31:08;;;;;;;7.57;1.30;;;;;;;4.54;65.21;100794.41;2017177;29;20488;-61
2022/02/19 04:32:08;;;;;;;5.10;1.47;;;;;;;4.54;65.24;100801.28;2017231;29;20049;-61
2022/02/19 04:33:09;;;;;;;7.22;1.25;;;;;;;4.60;65.56;100793.44;2010202;29;20033;-61
2022/02/19 04:34:09;;;;;;;5.57;1.73;;;;;;;4.64;65.37;100798.53;2010350;29;20120;-61
2022/02/19 04:35:10;;;;;;;9.10;1.43;;;;;;;4.58;65.68;100803.81;2010321;29;20049;-60
2022/02/19 04:36:10;;;;;;;3.72;1.42;;;;;;;4.56;66.05;100809.88;2011262;29;20085;-60
2022/02/19 04:37:11;;;;;;;6.80;1.93;;;;;;;4.53;65.54;100804.75;2011687;29;20539;-62
2022/02/19 04:38:12;;;;;;;8.17;2.27;;;;;;;4.58;65.41;100816.72;2011675;29;20115;-60
2022/02/19 04:39:12;;;;;;;6.60;1.63;;;;;;;4.60;64.72;100807.22;2011682;29;20563;-61
2022/02/19 04:40:13;;;;;;;10.17;1.37;;;;;;;4.69;65.00;100808.75;2011561;29;20053;-59
2022/02/19 04:41:14;;;;;;;6.38;0.80;;;;;;;4.68;64.82;100788.97;2011700;29;20033;-60
2022/02/19 04:42:14;;;;;;;5.13;1.40;;;;;;;4.78;64.40;100819.84;2011577;29;20056;-61
2022/02/19 04:43:14;;;;;;;4.50;1.40;;;;;;;4.64;65.26;100808.00;2011619;29;20025;-61
2022/02/19 04:44:15;;;;;;;8.57;1.93;;;;;;;4.58;65.10;100814.13;2011618;29;20030;-60
2022/02/19 04:45:15;;;;;;;7.15;1.60;;;;;;;4.75;64.80;100816.44;2011671;29;20053;-61
2022/02/19 04:46:15;;;;;;;5.60;1.57;;;;;;;4.63;65.07;100822.66;2011664;29;20061;-60